Time;durP1;ratioP1;P1;durP2;ratioP2;P2;SDS_P1;SDS_P2;PMS_P1;PMS_P2;Temp;Humidity;BMP_temperature;BMP_pressure;BME280_temperature;BME280_humidity;BME280_pressure;Samples;Min_cycle;Max_cycle;Signal;HPM_P1;HPM_P2
2022/08/28 00:00:14;;;;;;;18.83;8.63;;;;;;;14.74;79.69;102100.56;5087931;28;20038;-77
2022/08/28 00:02:40;;;;;;;20.08;7.85;;;;;;;14.75;80.50;102102.25;5065335;28;20028;-77
2022/08/28 00:05:08;;;;;;;14.70;6.45;;;;;;;14.68;80.64;102102.16;5087861;28;20024;-78
2022/08/28 00:07:35;;;;;;;17.75;6.15;;;;;;;14.63;80.90;102103.81;5086241;28;20034;-78
2022/08/28 00:10:00;;;;;;;9.57;4.90;;;;;;;14.65;80.76;102108.09;5088828;28;20524;-77
2022/08/28 00:12:26;;;;;;;11.23;4.93;;;;;;;14.59;80.76;102103.34;5053075;28;20143;-78
2022/08/28 00:14:51;;;;;;;10.70;5.30;;;;;;;14.56;80.71;102094.63;5088024;28;20031;-77
2022/08/28 00:17:17;;;;;;;14.57;5.27;;;;;;;14.56;81.06;102100.13;5066755;28;20471;-77
2022/08/28 00:19:43;;;;;;;13.07;4.83;;;;;;;14.58;80.64;102100.78;5089139;28;20435;-78
2022/08/28 00:22:09;;;;;;;11.13;4.82;;;;;;;14.53;81.01;102108.78;5088178;28;20067;-79
2022/08/28 00:24:35;;;;;;;14.37;5.03;;;;;;;14.58;81.44;102098.03;5089603;28;20078;-77
2022/08/28 00:29:46;;;;;;;17.90;4.57;;;;;;;14.52;81.44;102112.59;5086678;28;20059;-77
2022/08/28 00:32:12;;;;;;;16.47;5.23;;;;;;;14.48;81.31;102105.72;5070547;28;20036;-78
2022/08/28 00:34:38;;;;;;;10.23;5.85;;;;;;;14.45;81.66;102114.38;5088829;28;20109;-77
2022/08/28 00:37:03;;;;;;;15.27;4.77;;;;;;;14.41;81.26;102111.16;5084687;28;20082;-78
2022/08/28 00:39:29;;;;;;;14.30;5.30;;;;;;;14.40;82.41;102108.59;5066526;28;20056;-78
2022/08/28 00:41:56;;;;;;;14.63;5.28;;;;;;;14.36;81.66;102107.28;5087240;28;20032;-78
2022/08/28 00:44:23;;;;;;;13.73;5.00;;;;;;;14.37;81.50;102108.97;5056095;28;20380;-77
2022/08/28 00:46:51;;;;;;;13.70;4.93;;;;;;;14.31;82.11;102112.50;5073180;28;20028;-78
2022/08/28 00:49:21;;;;;;;12.40;5.03;;;;;;;14.30;81.92;102111.63;5071388;28;20101;-77
2022/08/28 00:54:40;;;;;;;15.57;5.57;;;;;;;14.25;82.78;102111.34;5087067;28;20070;-79
2022/08/28 00:57:09;;;;;;;16.27;5.32;;;;;;;14.24;82.40;102114.31;5089712;28;20157;-77
2022/08/28 00:59:36;;;;;;;13.38;5.07;;;;;;;14.22;82.61;102108.13;5088744;28;20036;-78
2022/08/28 01:02:02;;;;;;;19.58;4.68;;;;;;;14.21;82.29;102107.28;5072834;28;20028;-77
2022/08/28 01:04:31;;;;;;;15.27;5.73;;;;;;;14.20;82.77;102107.47;5083643;28;20050;-78
2022/08/28 01:06:58;;;;;;;14.52;4.97;;;;;;;14.17;82.84;102108.66;5068630;28;20227;-78
2022/08/28 01:09:26;;;;;;;18.85;5.72;;;;;;;14.13;82.80;102121.09;5071953;28;20119;-79
2022/08/28 01:11:57;;;;;;;18.75;4.88;;;;;;;14.03;83.05;102111.41;5072397;28;20039;-78
2022/08/28 01:14:25;;;;;;;12.50;5.18;;;;;;;14.07;83.49;102119.09;5077685;28;20041;-77
2022/08/28 01:16:54;;;;;;;17.02;4.82;;;;;;;14.07;83.02;102110.84;5088501;28;20028;-77
2022/08/28 01:19:36;;;;;;;14.10;5.25;;;;;;;14.04;82.49;102108.44;5072159;28;20417;-77
2022/08/28 01:22:21;;;;;;;12.88;5.20;;;;;;;14.02;83.22;102123.47;5068482;28;20462;-77
2022/08/28 01:24:50;;;;;;;12.75;4.95;;;;;;;13.99;82.25;102104.56;5091281;28;20032;-77
2022/08/28 01:27:18;;;;;;;10.50;4.85;;;;;;;13.98;83.12;102109.22;5086739;28;20036;-77
2022/08/28 01:29:43;;;;;;;12.40;5.05;;;;;;;13.94;83.84;102107.03;5090534;28;20032;-77
2022/08/28 01:32:09;;;;;;;12.17;4.87;;;;;;;13.96;83.68;102110.44;5054321;28;20028;-77
2022/08/28 01:34:34;;;;;;;11.80;4.67;;;;;;;14.00;84.13;102106.28;5090523;28;20048;-77
2022/08/28 01:36:59;;;;;;;9.30;4.90;;;;;;;14.00;83.69;102106.28;5072086;28;20021;-77
2022/08/28 01:39:26;;;;;;;16.13;4.87;;;;;;;13.97;83.50;102107.50;5089316;28;20422;-76
2022/08/28 01:41:53;;;;;;;12.43;4.53;;;;;;;13.98;83.75;102114.72;5070204;28;20044;-76
2022/08/28 01:44:23;;;;;;;13.90;4.90;;;;;;;13.98;83.79;102108.38;5090637;28;20456;-77
2022/08/28 01:46:50;;;;;;;19.98;4.97;;;;;;;14.01;84.67;102107.97;5071111;28;20476;-77
2022/08/28 01:49:16;;;;;;;15.55;4.53;;;;;;;14.01;83.69;102107.97;5091562;28;20071;-76
2022/08/28 01:51:42;;;;;;;21.00;6.18;;;;;;;13.98;84.23;102113.88;5089694;28;20035;-76
2022/08/28 01:54:08;;;;;;;15.30;4.73;;;;;;;13.98;83.85;102109.22;5066894;28;20024;-76
2022/08/28 01:56:34;;;;;;;13.13;5.05;;;;;;;13.98;84.21;102120.22;5063270;28;20399;-77
2022/08/28 01:59:05;;;;;;;9.80;4.70;;;;;;;13.94;84.34;102118.88;5069825;28;20046;-77
2022/08/28 02:01:30;;;;;;;13.35;4.75;;;;;;;13.88;84.04;102110.53;5046325;28;20111;-77
2022/08/28 02:03:56;;;;;;;12.03;4.70;;;;;;;13.85;83.90;102119.16;5068545;28;20139;-75
2022/08/28 02:06:21;;;;;;;17.43;4.90;;;;;;;13.81;84.50;102115.06;5088153;28;20128;-75
2022/08/28 02:08:48;;;;;;;16.20;4.47;;;;;;;13.85;84.30;102114.53;5071486;28;20032;-76
2022/08/28 02:11:14;;;;;;;11.85;4.38;;;;;;;13.83;85.14;102118.50;5072602;28;20055;-77
2022/08/28 02:13:40;;;;;;;13.98;4.00;;;;;;;13.86;84.54;102112.63;5071620;28;20036;-77
2022/08/28 02:16:09;;;;;;;20.60;5.13;;;;;;;13.78;84.93;102108.03;5091552;28;20044;-77
2022/08/28 02:18:36;;;;;;;14.27;4.50;;;;;;;13.80;84.34;102117.00;5071168;28;20039;-77
2022/08/28 02:21:02;;;;;;;16.40;4.68;;;;;;;13.81;84.91;102123.34;5071517;28;20082;-77
2022/08/28 02:23:28;;;;;;;11.50;4.10;;;;;;;13.76;84.83;102118.41;5074764;28;20032;-78
2022/08/28 02:25:53;;;;;;;11.57;4.00;;;;;;;13.71;84.55;102117.25;5089040;28;20494;-77
2022/08/28 02:28:18;;;;;;;9.30;3.60;;;;;;;13.69;85.49;102119.31;5066689;28;20379;-77
2022/08/28 02:30:44;;;;;;;13.80;4.30;;;;;;;13.68;84.85;102128.63;5071107;28;20042;-77
2022/08/28 02:33:09;;;;;;;17.40;4.67;;;;;;;13.67;85.51;102126.94;5088689;28;20035;-77
2022/08/28 02:35:35;;;;;;;10.67;3.67;;;;;;;13.62;84.54;102121.97;5071515;28;20020;-77
2022/08/28 02:38:00;;;;;;;18.13;3.70;;;;;;;13.63;84.97;102126.44;5086640;28;20103;-77
2022/08/28 02:40:26;;;;;;;11.03;3.77;;;;;;;13.60;84.70;102126.81;5071485;28;20616;-76
2022/08/28 02:42:51;;;;;;;11.10;3.90;;;;;;;13.61;84.55;102117.50;5062019;28;20625;-77
2022/08/28 02:45:18;;;;;;;13.90;4.20;;;;;;;13.58;85.24;102122.53;5090799;28;20036;-77
2022/08/28 02:47:46;;;;;;;14.60;4.53;;;;;;;13.60;85.94;102128.72;5088148;28;20030;-76
2022/08/28 02:50:15;;;;;;;10.95;4.07;;;;;;;13.61;85.82;102128.50;5089540;28;20036;-76
2022/08/28 02:52:41;;;;;;;18.50;5.05;;;;;;;13.63;85.67;102133.84;5064892;28;20028;-76
2022/08/28 02:55:08;;;;;;;11.43;4.18;;;;;;;13.63;85.73;102136.59;5071890;28;20555;-77
2022/08/28 02:57:35;;;;;;;16.98;3.88;;;;;;;13.58;86.08;102139.91;5066184;28;20496;-78
2022/08/28 03:00:06;;;;;;;11.52;4.57;;;;;;;13.60;86.54;102137.81;5085999;28;20184;-77
2022/08/28 03:02:32;;;;;;;12.77;4.35;;;;;;;13.67;86.12;102141.53;5086797;28;20055;-77
2022/08/28 03:04:59;;;;;;;15.17;4.00;;;;;;;13.72;85.88;102132.75;5068999;28;20024;-76
2022/08/28 03:07:26;;;;;;;12.10;4.28;;;;;;;13.70;85.55;102141.19;5065955;28;20025;-77
2022/08/28 03:09:52;;;;;;;8.00;3.92;;;;;;;13.64;85.42;102135.53;5070343;28;20046;-77
2022/08/28 03:12:22;;;;;;;12.97;3.93;;;;;;;13.66;85.77;102130.72;5087776;28;20036;-77
2022/08/28 03:14:48;;;;;;;10.20;4.30;;;;;;;13.67;85.95;102143.44;5079560;28;20038;-76
2022/08/28 03:17:13;;;;;;;10.70;3.87;;;;;;;13.71;85.46;102133.78;5086851;28;20028;-76
2022/08/28 03:19:39;;;;;;;12.87;4.00;;;;;;;13.64;85.81;102139.16;5071432;28;20035;-77
2022/08/28 03:22:04;;;;;;;13.97;4.23;;;;;;;13.68;85.63;102146.03;5086003;28;20118;-77
2022/08/28 03:24:29;;;;;;;11.27;4.13;;;;;;;13.64;86.20;102141.06;5071748;28;20396;-77
2022/08/28 03:26:55;;;;;;;19.33;4.30;;;;;;;13.66;85.42;102139.81;5088208;28;20490;-76
2022/08/28 03:29:20;;;;;;;12.03;4.37;;;;;;;13.64;86.12;102138.31;5088057;28;20036;-77
2022/08/28 03:31:45;;;;;;;14.07;3.17;;;;;;;13.64;85.96;102130.03;5087505;28;20044;-76
2022/08/28 03:34:11;;;;;;;13.47;3.80;;;;;;;13.63;85.98;102145.72;5070309;28;20034;-76
2022/08/28 03:36:36;;;;;;;7.97;3.20;;;;;;;13.60;86.36;102139.75;5067091;28;20031;-77
2022/08/28 03:39:05;;;;;;;13.57;3.60;;;;;;;13.60;86.25;102134.22;5086911;28;20070;-78
2022/08/28 03:41:31;;;;;;;19.08;5.03;;;;;;;13.60;86.20;102142.50;5070090;28;20028;-78
2022/08/28 03:43:59;;;;;;;11.07;3.55;;;;;;;13.57;85.67;102151.09;5047794;28;20114;-76
2022/08/28 03:46:25;;;;;;;15.25;3.75;;;;;;;13.56;86.23;102149.41;5070198;28;20067;-76
2022/08/28 03:48:52;;;;;;;10.90;3.67;;;;;;;13.56;86.52;102153.00;5062741;28;20044;-78
2022/08/28 03:51:23;;;;;;;6.97;2.90;;;;;;;13.54;86.81;102162.47;5068181;28;20471;-77
2022/08/28 03:53:49;;;;;;;9.98;3.45;;;;;;;13.55;86.91;102159.53;5067195;28;20044;-76
2022/08/28 03:56:21;;;;;;;13.10;4.23;;;;;;;13.57;87.33;102154.72;5087848;28;20020;-77
2022/08/28 03:58:48;;;;;;;7.28;3.85;;;;;;;13.63;86.92;102153.13;5069297;28;20493;-77
2022/08/28 04:01:13;;;;;;;12.77;3.92;;;;;;;13.47;87.41;102156.88;5068031;28;20052;-76
2022/08/28 04:03:38;;;;;;;12.47;4.03;;;;;;;13.49;87.44;102153.91;5086620;28;20121;-77
2022/08/28 04:06:04;;;;;;;14.77;3.77;;;;;;;13.49;87.05;102154.78;5088128;28;20024;-77
2022/08/28 04:08:32;;;;;;;7.40;3.20;;;;;;;13.44;87.56;102159.16;5077946;28;20036;-77
2022/08/28 04:10:59;;;;;;;8.80;3.30;;;;;;;13.39;87.39;102150.56;5059215;28;20026;-76
2022/08/28 04:13:25;;;;;;;9.07;4.03;;;;;;;13.35;87.59;102152.81;5065355;28;20028;-77
2022/08/28 04:16:03;;;;;;;11.90;3.90;;;;;;;13.38;88.02;102162.59;5068841;28;20089;-76
2022/08/28 04:18:29;;;;;;;11.10;3.70;;;;;;;13.34;87.30;102158.53;5085261;28;20036;-78
2022/08/28 04:21:06;;;;;;;11.43;3.83;;;;;;;13.31;88.25;102164.38;5073952;28;20028;-77
2022/08/28 04:23:37;;;;;;;16.55;4.03;;;;;;;13.37;88.82;102166.41;5089254;28;20279;-80
2022/08/28 04:26:04;;;;;;;8.57;3.53;;;;;;;13.34;88.25;102159.38;5092141;28;20031;-78
2022/08/28 04:28:31;;;;;;;11.85;3.65;;;;;;;13.34;87.81;102159.38;5064479;28;20020;-76
2022/08/28 04:30:56;;;;;;;11.75;4.03;;;;;;;13.33;88.17;102167.78;5080017;28;20028;-79
2022/08/28 04:33:24;;;;;;;11.03;4.40;;;;;;;13.34;89.55;102167.63;5072135;28;20475;-77
2022/08/28 04:35:49;;;;;;;8.43;3.90;;;;;;;13.33;88.42;102167.78;5058564;28;20364;-77
2022/08/28 04:38:15;;;;;;;6.73;3.93;;;;;;;13.32;88.21;102172.47;5073299;28;20031;-79
2022/08/28 04:40:41;;;;;;;19.33;4.60;;;;;;;13.28;88.13;102164.78;5072328;28;20085;-78
2022/08/28 04:43:07;;;;;;;12.57;3.72;;;;;;;13.32;88.94;102166.09;5068301;28;20043;-77
2022/08/28 04:45:40;;;;;;;10.03;3.37;;;;;;;13.28;88.68;102181.28;5074047;28;20032;-78
2022/08/28 04:48:06;;;;;;;11.35;4.47;;;;;;;13.23;89.38;102161.69;5089117;28;20032;-77
2022/08/28 04:50:32;;;;;;;17.40;4.07;;;;;;;13.24;89.04;102178.00;5073168;28;20063;-77
2022/08/28 04:52:57;;;;;;;11.10;4.03;;;;;;;13.28;88.44;102175.78;5072991;28;20578;-77
2022/08/28 04:55:23;;;;;;;9.60;4.60;;;;;;;13.25;89.70;102176.13;5090854;28;20024;-78
2022/08/28 04:57:48;;;;;;;10.73;5.07;;;;;;;13.18;89.58;102170.47;5089920;28;20058;-78
2022/08/28 05:00:14;;;;;;;19.67;5.17;;;;;;;13.21;90.26;102175.63;5089077;28;20035;-78
2022/08/28 05:02:39;;;;;;;12.90;4.60;;;;;;;13.29;90.02;102174.72;5069893;28;20040;-78
2022/08/28 05:05:05;;;;;;;8.17;4.23;;;;;;;13.33;89.65;102178.81;5083285;28;20118;-78
2022/08/28 05:07:31;;;;;;;10.30;4.33;;;;;;;13.37;89.27;102183.78;5086777;28;20432;-78
2022/08/28 05:09:57;;;;;;;13.38;4.68;;;;;;;13.42;89.20;102181.34;5072633;28;20028;-77
2022/08/28 05:12:22;;;;;;;13.30;5.77;;;;;;;13.41;89.32;102184.28;5089762;28;20051;-77
2022/08/28 05:14:48;;;;;;;13.43;5.40;;;;;;;13.41;89.61;102187.03;5069042;28;20135;-77
2022/08/28 05:17:14;;;;;;;10.85;4.80;;;;;;;13.43;89.75;102187.69;5090011;28;20433;-78
2022/08/28 05:19:40;;;;;;;13.77;4.47;;;;;;;13.45;89.96;102194.72;5071862;28;20036;-77
2022/08/28 05:22:05;;;;;;;12.07;4.57;;;;;;;13.51;89.60;102193.16;5088417;28;20052;-78
2022/08/28 05:24:31;;;;;;;12.67;4.67;;;;;;;13.57;90.11;102197.91;5071229;28;20038;-79
2022/08/28 05:26:57;;;;;;;20.13;6.83;;;;;;;13.61;89.59;102193.75;5088029;28;20065;-78
2022/08/28 05:29:22;;;;;;;10.93;4.60;;;;;;;13.69;89.51;102191.78;5090362;28;20032;-78
2022/08/28 05:31:48;;;;;;;16.63;4.67;;;;;;;13.74;89.05;102203.13;5087686;28;20032;-79
2022/08/28 05:34:14;;;;;;;14.77;4.80;;;;;;;13.88;88.95;102205.03;5071674;28;20169;-78
2022/08/28 05:36:40;;;;;;;14.52;5.18;;;;;;;13.87;88.52;102202.50;5087101;28;20031;-78
2022/08/28 05:39:09;;;;;;;12.23;4.70;;;;;;;13.89;89.00;102201.28;5086658;28;20028;-78
2022/08/28 05:41:35;;;;;;;16.63;4.57;;;;;;;13.94;88.98;102209.81;5085628;28;20032;-79
2022/08/28 05:44:08;;;;;;;11.38;4.35;;;;;;;14.03;88.91;102207.84;5091235;28;20472;-77
2022/08/28 05:46:36;;;;;;;13.30;4.47;;;;;;;14.07;89.10;102222.94;5069298;28;20028;-78
2022/08/28 05:49:02;;;;;;;15.55;5.13;;;;;;;14.14;88.80;102218.44;5071762;28;20112;-78
2022/08/28 05:51:27;;;;;;;12.13;4.20;;;;;;;14.21;88.47;102213.91;5089278;28;20165;-78
2022/08/28 05:53:53;;;;;;;13.20;4.27;;;;;;;14.23;88.08;102209.91;5102679;28;20046;-78
2022/08/28 05:56:23;;;;;;;11.73;4.10;;;;;;;14.27;87.96;102213.16;5090053;28;20028;-78
2022/08/28 05:58:49;;;;;;;13.10;5.10;;;;;;;14.33;87.55;102209.63;5088320;28;20300;-78
2022/08/28 06:01:27;;;;;;;13.97;4.97;;;;;;;14.38;87.18;102210.78;5071087;28;20028;-78
2022/08/28 06:03:58;;;;;;;17.15;4.45;;;;;;;14.46;86.88;102212.63;5088247;28;20028;-78
2022/08/28 06:06:25;;;;;;;10.93;4.32;;;;;;;14.52;86.72;102211.84;5086499;28;20317;-79
2022/08/28 06:08:58;;;;;;;11.00;3.75;;;;;;;14.62;86.21;102209.66;5088884;28;20039;-79
2022/08/28 06:11:24;;;;;;;11.20;3.45;;;;;;;14.66;85.98;102209.09;5083666;28;20033;-79
2022/08/28 06:13:50;;;;;;;12.00;3.83;;;;;;;14.78;85.02;102212.22;5089013;28;20023;-78
2022/08/28 06:16:15;;;;;;;9.13;4.03;;;;;;;14.82;85.08;102208.00;5065008;28;20040;-79
2022/08/28 06:18:41;;;;;;;13.47;4.37;;;;;;;14.95;84.34;102209.03;5071533;28;20448;-78
2022/08/28 06:21:07;;;;;;;11.40;4.07;;;;;;;15.03;84.23;102216.38;5088735;28;20061;-78
2022/08/28 06:23:32;;;;;;;18.77;4.83;;;;;;;15.07;83.60;102214.94;5088144;28;20024;-79
2022/08/28 06:25:58;;;;;;;13.43;3.53;;;;;;;15.18;83.36;102225.47;5069231;28;20069;-77
2022/08/28 06:28:26;;;;;;;14.70;3.70;;;;;;;15.26;82.63;102222.63;5088056;28;20555;-78
2022/08/28 06:30:53;;;;;;;7.38;3.55;;;;;;;15.39;82.41;102234.72;5066928;28;20020;-78
2022/08/28 06:33:20;;;;;;;14.43;3.97;;;;;;;15.50;81.61;102220.38;5091328;28;20031;-78
2022/08/28 06:35:53;;;;;;;13.88;3.45;;;;;;;15.61;81.20;102227.28;5086178;28;20119;-78
2022/08/28 06:38:21;;;;;;;13.13;3.55;;;;;;;15.77;80.61;102224.28;5069911;28;20035;-78
2022/08/28 06:40:51;;;;;;;8.90;3.08;;;;;;;15.80;80.39;102234.94;5085266;28;20093;-77
2022/08/28 06:43:18;;;;;;;13.05;3.13;;;;;;;15.89;80.04;102237.38;5069678;28;21651;-78
2022/08/28 06:45:45;;;;;;;9.00;3.22;;;;;;;15.98;79.50;102241.72;5068409;28;20052;-78
2022/08/28 06:48:15;;;;;;;14.13;4.18;;;;;;;16.03;79.18;102233.69;5088423;28;20128;-79
2022/08/28 06:50:43;;;;;;;11.45;3.50;;;;;;;16.06;79.05;102235.19;5086267;28;20077;-80
2022/08/28 06:53:11;;;;;;;9.13;2.78;;;;;;;16.23;78.84;102240.22;5092334;28;20051;-79
2022/08/28 06:55:37;;;;;;;14.93;3.40;;;;;;;16.33;78.27;102246.25;5068805;28;20486;-79
2022/08/28 06:58:04;;;;;;;7.57;3.60;;;;;;;16.33;78.45;102239.88;5093070;28;20031;-79
2022/08/28 07:00:30;;;;;;;10.82;3.17;;;;;;;16.41;78.00;102239.75;5088067;28;20103;-79
2022/08/28 07:02:56;;;;;;;16.80;3.67;;;;;;;16.49;77.81;102234.91;5070110;28;20130;-80
2022/08/28 07:05:21;;;;;;;12.70;3.22;;;;;;;16.58;76.61;102224.53;5091849;28;20039;-78
2022/08/28 07:07:50;;;;;;;11.83;2.67;;;;;;;16.74;76.43;102238.94;5070529;28;20031;-78
2022/08/28 07:10:15;;;;;;;20.52;4.15;;;;;;;17.38;73.24;102239.44;5089323;28;20470;-78
2022/08/28 07:12:41;;;;;;;8.37;2.87;;;;;;;18.48;70.21;102241.59;5090734;28;20032;-79
2022/08/28 07:15:07;;;;;;;6.60;2.70;;;;;;;19.02;67.54;102239.34;5080035;28;20372;-80
2022/08/28 07:17:33;;;;;;;9.68;2.67;;;;;;;19.47;66.51;102239.19;5071922;28;20024;-82
2022/08/28 07:19:58;;;;;;;9.80;3.00;;;;;;;19.94;65.52;102247.03;5091140;28;20178;-81
2022/08/28 07:22:25;;;;;;;10.27;2.83;;;;;;;20.02;64.08;102255.09;5090283;28;20015;-81
2022/08/28 07:24:51;;;;;;;8.27;2.42;;;;;;;20.15;63.16;102256.97;5072851;28;20020;-81
2022/08/28 07:27:17;;;;;;;5.40;2.03;;;;;;;20.03;62.61;102255.94;5040232;28;20039;-80
2022/08/28 07:29:42;;;;;;;13.50;2.70;;;;;;;20.18;63.46;102259.31;5071312;28;20032;-82
2022/08/28 07:32:08;;;;;;;11.07;2.60;;;;;;;20.26;62.20;102257.09;5091011;28;20039;-81
2022/08/28 07:34:37;;;;;;;8.50;2.27;;;;;;;20.35;62.39;102258.53;5077094;28;20034;-81
2022/08/28 07:37:05;;;;;;;16.17;3.80;;;;;;;20.26;62.88;102259.00;5081035;28;20078;-81
2022/08/28 07:39:31;;;;;;;12.05;2.38;;;;;;;20.31;62.29;102261.97;5093403;28;20624;-82
2022/08/28 07:41:56;;;;;;;13.70;2.75;;;;;;;20.29;62.13;102262.22;5086550;28;20063;-81
2022/08/28 07:47:06;;;;;;;10.45;2.70;;;;;;;19.80;62.60;102273.22;5086711;28;20104;-82
2022/08/28 07:49:33;;;;;;;8.20;3.30;;;;;;;19.67;63.37;102272.44;5086905;28;20031;-82
2022/08/28 07:51:58;;;;;;;18.70;3.20;;;;;;;19.51;64.42;102278.50;5088426;28;20062;-81
2022/08/28 07:54:24;;;;;;;10.80;2.60;;;;;;;19.70;64.20;102274.78;5096569;28;20028;-81
2022/08/28 07:56:50;;;;;;;13.20;2.80;;;;;;;19.59;63.58;102281.03;5074475;28;20077;-81
2022/08/28 07:59:16;;;;;;;7.43;2.00;;;;;;;19.33;62.99;102290.34;5090788;28;20031;-83
2022/08/28 08:01:43;;;;;;;12.70;2.13;;;;;;;19.38;64.24;102290.53;5066825;28;20043;-81
2022/08/28 08:04:12;;;;;;;11.95;2.80;;;;;;;19.50;62.97;102296.25;5062751;28;20419;-81
2022/08/28 08:06:39;;;;;;;8.02;2.55;;;;;;;19.76;63.30;102287.78;5088730;28;20021;-81
2022/08/28 08:09:07;;;;;;;8.80;2.08;;;;;;;19.30;62.89;102298.25;5092813;28;20016;-81
2022/08/28 08:11:33;;;;;;;11.95;2.78;;;;;;;19.11;63.92;102288.03;5070816;28;20024;-80
2022/08/28 08:14:04;;;;;;;9.45;2.15;;;;;;;19.22;63.46;102301.28;5070515;28;20032;-81
2022/08/28 08:16:33;;;;;;;8.05;2.22;;;;;;;19.17;64.40;102293.59;5072374;28;20135;-80
2022/08/28 08:18:59;;;;;;;15.02;2.38;;;;;;;19.27;64.71;102295.94;5086603;28;20064;-81
2022/08/28 08:21:25;;;;;;;20.10;3.78;;;;;;;19.33;63.86;102297.81;5085798;28;20042;-81
2022/08/28 08:23:51;;;;;;;9.88;2.70;;;;;;;19.27;64.08;102296.75;5066795;28;20543;-81
2022/08/28 08:26:20;;;;;;;9.37;2.30;;;;;;;19.17;63.36;102298.28;5067757;28;20040;-81
2022/08/28 08:28:47;;;;;;;10.85;2.50;;;;;;;19.17;64.12;102293.59;5087911;28;20545;-81
2022/08/28 08:31:22;;;;;;;8.90;2.17;;;;;;;19.10;63.83;102297.44;5070257;28;20464;-81
2022/08/28 08:33:50;;;;;;;8.00;2.40;;;;;;;19.15;64.28;102297.66;5084915;28;20036;-81
2022/08/28 08:36:19;;;;;;;7.20;2.22;;;;;;;19.05;64.30;102294.47;5072375;28;20032;-80
2022/08/28 08:38:45;;;;;;;10.68;2.10;;;;;;;18.88;63.96;102294.06;5096118;28;20020;-80
2022/08/28 08:41:13;;;;;;;9.93;2.40;;;;;;;19.04;64.30;102293.59;5088804;28;20345;-80
2022/08/28 08:43:52;;;;;;;7.50;1.98;;;;;;;19.10;64.03;102287.16;5109449;28;20040;-80
2022/08/28 08:46:20;;;;;;;7.28;2.10;;;;;;;19.25;63.44;102290.59;5087558;28;20020;-81
2022/08/28 08:48:46;;;;;;;6.93;2.28;;;;;;;19.41;62.87;102280.88;5089840;28;20063;-80
2022/08/28 08:51:25;;;;;;;5.77;2.20;;;;;;;19.58;62.40;102284.91;5088533;28;20019;-81
2022/08/28 08:54:05;;;;;;;8.75;1.95;;;;;;;19.84;60.85;102290.34;5090070;28;20229;-81
2022/08/28 08:56:31;;;;;;;7.43;2.10;;;;;;;20.28;59.15;102287.47;5103773;28;20499;-80
2022/08/28 08:59:00;;;;;;;9.93;1.83;;;;;;;20.04;59.46;102288.25;5089493;28;20032;-81
2022/08/28 09:01:38;;;;;;;5.90;1.85;;;;;;;20.42;59.34;102277.94;5087041;28;20090;-81
2022/08/28 09:04:22;;;;;;;8.55;2.00;;;;;;;21.02;57.19;102277.19;5106866;28;20336;-81
2022/08/28 09:06:58;;;;;;;6.40;2.03;;;;;;;20.87;57.29;102282.25;5108798;28;20036;-80
2022/08/28 09:09:32;;;;;;;10.45;2.60;;;;;;;20.83;56.20;102284.63;5110340;28;20080;-80
2022/08/28 09:12:07;;;;;;;6.10;1.77;;;;;;;20.83;54.48;102281.00;5110434;28;20020;-81
2022/08/28 09:14:40;;;;;;;9.82;1.98;;;;;;;20.91;54.84;102287.16;5108020;28;20036;-80
2022/08/28 09:17:07;;;;;;;5.60;1.40;;;;;;;21.22;54.60;102284.22;5093988;28;20020;-80
2022/08/28 09:19:33;;;;;;;13.10;2.25;;;;;;;20.93;54.57;102273.00;5110336;28;20044;-80
2022/08/28 09:21:59;;;;;;;3.92;1.67;;;;;;;21.49;54.03;102276.38;5091888;28;20036;-80
2022/08/28 09:24:27;;;;;;;6.72;2.38;;;;;;;21.26;54.09;102281.81;5104776;28;20065;-81
2022/08/28 09:27:00;;;;;;;7.95;1.70;;;;;;;21.43;51.59;102282.91;5092892;28;20035;-81
2022/08/28 09:29:34;;;;;;;6.88;1.60;;;;;;;22.24;52.25;102284.16;5090081;28;20020;-81
2022/08/28 09:32:21;;;;;;;5.95;1.77;;;;;;;22.92;50.66;102285.34;5093414;28;20020;-81
2022/08/28 09:35:25;;;;;;;4.80;1.67;;;;;;;22.34;49.58;102287.19;5103301;28;20028;-81
2022/08/28 09:37:51;;;;;;;10.40;1.98;;;;;;;22.04;51.31;102291.97;5091009;28;20058;-80
2022/08/28 09:40:19;;;;;;;4.17;2.00;;;;;;;21.82;53.30;102299.16;5092813;28;20031;-80
2022/08/28 09:43:26;;;;;;;4.00;1.90;;;;;;;21.10;55.19;102285.22;5091029;28;20032;-81
2022/08/28 09:45:54;;;;;;;10.93;1.80;;;;;;;21.06;56.06;102286.75;5106416;28;20036;-80
2022/08/28 09:48:28;;;;;;;11.02;2.90;;;;;;;20.92;56.47;102288.84;5110454;28;20036;-81
2022/08/28 09:51:12;;;;;;;6.50;1.90;;;;;;;20.85;56.39;102289.94;5092568;28;20083;-81
2022/08/28 09:53:49;;;;;;;4.95;1.42;;;;;;;21.15;56.75;102290.97;5111727;28;20031;-81
2022/08/28 09:56:32;;;;;;;4.63;1.83;;;;;;;21.31;56.31;102291.22;5089097;28;20024;-80
2022/08/28 09:59:10;;;;;;;5.57;1.65;;;;;;;21.28;55.00;102288.88;5110912;28;20045;-80
2022/08/28 10:01:45;;;;;;;8.82;2.10;;;;;;;21.42;54.96;102284.84;5092383;28;20024;-81
2022/08/28 10:04:16;;;;;;;5.90;1.85;;;;;;;21.13;54.63;102284.78;5090213;28;20028;-80
2022/08/28 10:06:53;;;;;;;4.82;1.73;;;;;;;20.84;55.67;102283.53;5090671;28;20407;-80
2022/08/28 10:09:49;;;;;;;5.13;1.92;;;;;;;20.77;56.13;102284.69;5088586;28;20946;-81
2022/08/28 10:12:44;;;;;;;5.57;1.77;;;;;;;20.73;55.97;102292.66;5093754;28;20089;-81
2022/08/28 10:15:29;;;;;;;13.07;2.25;;;;;;;21.08;55.76;102284.63;5093292;28;20039;-81
2022/08/28 10:18:19;;;;;;;8.80;2.45;;;;;;;22.04;52.47;102289.19;5110055;28;20012;-81
2022/08/28 10:20:51;;;;;;;12.00;1.67;;;;;;;21.75;53.41;102288.09;5092173;28;20016;-81
2022/08/28 10:23:40;;;;;;;3.67;1.58;;;;;;;21.73;52.18;102284.69;5093817;28;20047;-80
2022/08/28 10:26:17;;;;;;;2.95;1.42;;;;;;;21.67;52.44;102296.72;5110098;28;20040;-81
2022/08/28 10:28:48;;;;;;;14.35;2.00;;;;;;;21.22;53.25;102286.16;5092503;28;20038;-81
2022/08/28 10:31:39;;;;;;;8.48;2.20;;;;;;;21.66;52.98;102280.25;5091614;28;20070;-81
2022/08/28 10:34:29;;;;;;;4.15;1.45;;;;;;;22.34;49.84;102270.44;5110807;28;20028;-80
2022/08/28 10:37:13;;;;;;;5.53;2.10;;;;;;;22.86;49.34;102276.00;5086874;28;20039;-82
2022/08/28 10:39:57;;;;;;;8.73;2.17;;;;;;;23.19;46.98;102272.56;5106292;28;20021;-81
2022/08/28 10:42:34;;;;;;;5.32;1.60;;;;;;;22.91;45.84;102273.31;5097330;28;20103;-82
2022/08/28 10:45:10;;;;;;;3.70;1.30;;;;;;;22.93;46.67;102282.31;5118508;28;20035;-82
2022/08/28 10:47:41;;;;;;;3.92;1.60;;;;;;;23.36;46.57;102279.97;5110612;28;20039;-82
2022/08/28 10:50:33;;;;;;;4.85;1.60;;;;;;;23.75;45.50;102281.06;5095097;28;20491;-81
2022/08/28 10:53:05;;;;;;;2.85;1.65;;;;;;;23.66;45.44;102274.16;5075960;28;20046;-83
2022/08/28 10:55:47;;;;;;;6.45;1.50;;;;;;;23.73;45.66;102283.25;5095320;28;20008;-82
2022/08/28 10:58:14;;;;;;;7.25;1.50;;;;;;;23.24;45.74;102283.88;5094791;28;20092;-82
2022/08/28 11:00:44;;;;;;;3.58;1.42;;;;;;;23.48;45.90;102288.34;5094151;28;20004;-82
2022/08/28 11:03:13;;;;;;;3.13;1.65;;;;;;;23.53;45.46;102294.88;5071486;28;20502;-82
2022/08/28 11:05:42;;;;;;;5.80;1.27;;;;;;;23.62;44.44;102286.94;5108297;28;20035;-84
2022/08/28 11:08:34;;;;;;;2.63;1.42;;;;;;;23.95;44.37;102298.31;5094117;28;20031;-82
2022/08/28 11:11:05;;;;;;;7.22;1.60;;;;;;;24.15;43.79;102287.47;5108342;28;20043;-84
2022/08/28 11:14:00;;;;;;;4.30;1.70;;;;;;;23.88;43.39;102283.56;5093247;28;20011;-82
2022/08/28 11:16:29;;;;;;;4.00;1.65;;;;;;;23.79;44.03;102293.47;5092873;28;20068;-82
2022/08/28 11:19:32;;;;;;;5.13;1.50;;;;;;;23.60;44.01;102289.16;5110575;28;20024;-82
2022/08/28 11:22:17;;;;;;;5.43;1.75;;;;;;;23.32;45.84;102291.91;5092483;28;20031;-81
2022/08/28 11:24:47;;;;;;;4.57;1.50;;;;;;;22.57;45.65;102284.47;5108597;28;20027;-83
2022/08/28 11:27:23;;;;;;;3.17;1.33;;;;;;;22.90;46.54;102298.72;5101508;28;20017;-82
2022/08/28 11:30:32;;;;;;;5.90;1.90;;;;;;;22.72;48.30;102296.03;5103453;28;20052;-82
2022/08/28 11:33:00;;;;;;;3.38;1.73;;;;;;;22.47;47.63;102301.81;5080112;28;20036;-81
2022/08/28 11:35:31;;;;;;;5.07;1.35;;;;;;;22.61;48.28;102305.25;5101831;28;20055;-79
2022/08/28 11:37:57;;;;;;;3.22;1.15;;;;;;;22.81;47.62;102302.94;5091909;28;20036;-79